Bramwell, West Virginia
Current Conditions -  °F | °C
As of 1:22 PM on Friday 28 Nov 2014 (Local Time) from KBLF Reporting Station
Overcast Overcast  
Wind Chill: 18°   Ceiling: 1500
Heat Index: 26°   Visibility: 10mi
Dew Point: 17°   Wind: 7mph
Humidity: 69%   Direction: 260°W
Pressure: 30.24"   Gusts: NA
Location:  37.33°N, 81.31°W
Report Text: KBLF 281822Z AUTO 26006KT 10SM OVC015 M03/M08 A3024 RMK AO2 T10331083 $
Loading
Personal Weather Stations






























Interactive Weather Map New forecast layout! Learn more

10-Day Weather Forecast

Advertisements
Track Severe Weather on mobile